Time;durP1;ratioP1;P1;durP2;ratioP2;P2;SDS_P1;SDS_P2;PMS_P1;PMS_P2;Temp;Humidity;BMP_temperature;BMP_pressure;BME280_temperature;BME280_humidity;BME280_pressure;Samples;Min_cycle;Max_cycle;Signal;HPM_P1;HPM_P2
2022/08/22 00:03:52;;;;;;;;;;;;;;;;;;8329371;28;20045;-89
2022/08/22 00:08:15;;;;;;;9.23;6.28;;;;;;;;;;8322508;28;19967;-90
2022/08/22 00:12:34;;;;;;;9.68;5.90;;;;;;;;;;8328082;28;20049;-88
2022/08/22 00:16:44;;;;;;;9.38;5.95;;;;;;;;;;8329242;28;20046;-88
2022/08/22 00:20:53;;;;;;;8.45;6.20;;;;;;;;;;8326210;28;20046;-88
2022/08/22 00:25:04;;;;;;;8.43;5.38;;;;;;;;;;8327447;28;20049;-89
2022/08/22 00:29:12;;;;;;;6.93;5.40;;;;;;;;;;8324771;28;20508;-88
2022/08/22 00:33:24;;;;;;;6.63;5.22;;;;;;;;;;8328712;28;20037;-89
2022/08/22 00:37:33;;;;;;;12.52;6.75;;;;;;;;;;8328400;28;20061;-89
2022/08/22 00:41:55;;;;;;;8.10;5.32;;;;;;;;;;8322794;28;20095;-89
2022/08/22 00:46:18;;;;;;;9.80;5.70;;;;;;;;;;8324880;28;20048;-88
2022/08/22 00:50:43;;;;;;;7.88;5.65;;;;;;;;;;8328601;28;20038;-88
2022/08/22 00:55:03;;;;;;;11.05;5.75;;;;;;;;;;8334825;28;20545;-88
2022/08/22 00:59:20;;;;;;;8.77;6.03;;;;;;;;;;8338751;28;20041;-90
2022/08/22 01:03:54;;;;;;;10.25;6.43;;;;;;;;;;8351101;28;20124;-88
2022/08/22 01:08:16;;;;;;;8.68;5.95;;;;;;;;;;8347147;28;20191;-89
2022/08/22 01:12:38;;;;;;;7.45;5.65;;;;;;;;;;8332257;28;20049;-88
2022/08/22 01:17:02;;;;;;;8.20;6.75;;;;;;;;;;8333472;28;20046;-89
2022/08/22 01:21:46;;;;;;;10.63;6.63;;;;;;;;;;8329145;28;20056;-89
2022/08/22 01:26:38;;;;;;;7.60;5.75;;;;;;;;;;8327744;28;20052;-89
2022/08/22 01:31:13;;;;;;;8.30;5.95;;;;;;;;;;8333531;28;20496;-90
2022/08/22 01:36:18;;;;;;;10.13;6.30;;;;;;;;;;8325543;28;20053;-90
2022/08/22 01:41:05;;;;;;;9.75;6.28;;;;;;;;;;8239875;28;20054;-89
2022/08/22 01:45:56;;;;;;;10.60;6.60;;;;;;;;;;8264101;28;20096;-88
2022/08/22 01:50:09;;;;;;;10.68;7.65;;;;;;;;;;8248818;28;20491;-88
2022/08/22 01:54:21;;;;;;;12.15;7.72;;;;;;;;;;8263716;28;20454;-88
2022/08/22 01:58:29;;;;;;;10.10;7.30;;;;;;;;;;8263524;28;20054;-89
2022/08/22 02:02:51;;;;;;;9.07;6.53;;;;;;;;;;8263570;28;20054;-88
2022/08/22 02:07:00;;;;;;;;;;;;;;;;;;8263840;28;20050;-88
2022/08/22 02:11:05;;;;;;;9.48;6.63;;;;;;;;;;8316419;28;19921;-89
2022/08/22 02:15:18;;;;;;;13.73;8.10;;;;;;;;;;8330972;28;20543;-89
2022/08/22 02:19:33;;;;;;;14.00;8.93;;;;;;;;;;8332173;28;20568;-89
2022/08/22 02:23:47;;;;;;;13.13;8.52;;;;;;;;;;8331897;28;20136;-89
2022/08/22 02:27:56;;;;;;;14.13;9.20;;;;;;;;;;8330454;28;20091;-89
2022/08/22 02:32:06;;;;;;;14.07;9.50;;;;;;;;;;8331727;28;20050;-88
2022/08/22 02:36:18;;;;;;;15.65;9.15;;;;;;;;;;8333009;28;20501;-89
2022/08/22 02:40:30;;;;;;;15.80;9.45;;;;;;;;;;8325369;28;20506;-89
2022/08/22 02:44:36;;;;;;;15.25;9.95;;;;;;;;;;8331248;28;20121;-90
2022/08/22 02:48:45;;;;;;;16.02;11.02;;;;;;;;;;8331331;28;20171;-90
2022/08/22 02:52:57;;;;;;;21.10;9.80;;;;;;;;;;8331302;28;20041;-89
2022/08/22 02:57:05;;;;;;;18.45;10.63;;;;;;;;;;8331180;28;20096;-89
2022/08/22 03:01:22;;;;;;;18.45;10.15;;;;;;;;;;8331192;28;20057;-93
2022/08/22 03:05:30;;;;;;;17.13;10.05;;;;;;;;;;8331158;28;20049;-90
2022/08/22 03:09:37;;;;;;;17.38;10.95;;;;;;;;;;8331052;28;20504;-90
2022/08/22 03:13:53;;;;;;;16.33;10.98;;;;;;;;;;8330855;28;20050;-91
2022/08/22 03:18:02;;;;;;;18.05;12.48;;;;;;;;;;8330231;28;20068;-89
2022/08/22 03:22:11;;;;;;;20.60;12.20;;;;;;;;;;8329806;28;20045;-89
2022/08/22 03:26:22;;;;;;;17.17;10.75;;;;;;;;;;8323505;28;20057;-90
2022/08/22 03:30:33;;;;;;;17.95;12.35;;;;;;;;;;8324499;28;20493;-89
2022/08/22 03:34:36;;;;;;;20.97;11.93;;;;;;;;;;8329816;28;20072;-89
2022/08/22 03:39:01;;;;;;;18.65;12.38;;;;;;;;;;8329836;28;20053;-90
2022/08/22 03:43:23;;;;;;;17.90;11.48;;;;;;;;;;8363171;28;20056;-90
2022/08/22 03:48:04;;;;;;;14.98;10.65;;;;;;;;;;8363028;28;20049;-89
2022/08/22 03:52:33;;;;;;;17.48;12.18;;;;;;;;;;8315770;28;20057;-94
2022/08/22 03:57:27;;;;;;;16.17;10.68;;;;;;;;;;8320725;28;20056;-89
2022/08/22 04:01:56;;;;;;;15.98;11.23;;;;;;;;;;8257892;28;20054;-89
2022/08/22 04:06:40;;;;;;;17.45;11.23;;;;;;;;;;8322614;28;20532;-90
2022/08/22 04:10:59;;;;;;;14.52;8.65;;;;;;;;;;8342716;28;20563;-89
2022/08/22 04:15:30;;;;;;;14.48;9.75;;;;;;;;;;8362256;28;20049;-89
2022/08/22 04:20:02;;;;;;;12.68;9.60;;;;;;;;;;8356271;28;20053;-89
2022/08/22 04:24:23;;;;;;;15.32;10.95;;;;;;;;;;8330188;28;20053;-89
2022/08/22 04:28:31;;;;;;;19.25;12.13;;;;;;;;;;8362381;28;20466;-89
2022/08/22 04:32:38;;;;;;;25.42;15.27;;;;;;;;;;8349202;28;20041;-90
2022/08/22 04:36:46;;;;;;;20.55;14.05;;;;;;;;;;8350807;28;20493;-90
2022/08/22 04:40:57;;;;;;;20.38;13.77;;;;;;;;;;8382600;28;20163;-89
2022/08/22 04:45:05;;;;;;;18.30;11.52;;;;;;;;;;8363783;28;20041;-89
2022/08/22 04:49:14;;;;;;;16.48;14.02;;;;;;;;;;8364274;28;20051;-89
2022/08/22 04:53:38;;;;;;;17.92;14.88;;;;;;;;;;8367684;28;20049;-89
2022/08/22 04:57:50;;;;;;;17.98;14.15;;;;;;;;;;8362345;28;20060;-89
2022/08/22 05:01:55;;;;;;;18.77;14.35;;;;;;;;;;8367486;28;20064;-90
2022/08/22 05:06:00;;;;;;;19.00;13.35;;;;;;;;;;8367174;28;20052;-89
2022/08/22 05:10:08;;;;;;;22.92;14.02;;;;;;;;;;8367152;28;20127;-89
2022/08/22 05:14:18;;;;;;;16.27;12.45;;;;;;;;;;8370589;28;20496;-90
2022/08/22 05:18:24;;;;;;;17.85;13.02;;;;;;;;;;8360418;28;20374;-89
2022/08/22 05:22:29;;;;;;;21.73;15.98;;;;;;;;;;8361083;28;20048;-89
2022/08/22 05:26:37;;;;;;;15.75;12.23;;;;;;;;;;8374508;28;20041;-91
2022/08/22 05:30:46;;;;;;;15.57;11.85;;;;;;;;;;8358441;28;20060;-89
2022/08/22 05:34:50;;;;;;;19.02;12.70;;;;;;;;;;8469197;23;20106;-89
2022/08/22 05:38:57;;;;;;;25.95;16.23;;;;;;;;;;8359663;28;20093;-89
2022/08/22 05:42:59;;;;;;;18.67;11.93;;;;;;;;;;8359262;28;20095;-88
2022/08/22 05:47:12;;;;;;;29.80;17.98;;;;;;;;;;8362892;28;20132;-89
2022/08/22 05:51:20;;;;;;;24.10;15.10;;;;;;;;;;8358267;28;20503;-88
2022/08/22 05:55:28;;;;;;;24.05;16.42;;;;;;;;;;8363077;28;20049;-88
2022/08/22 05:59:35;;;;;;;15.40;11.77;;;;;;;;;;8360172;28;20056;-88
2022/08/22 06:03:46;;;;;;;16.42;12.13;;;;;;;;;;8357623;28;20120;-88
2022/08/22 06:07:53;;;;;;;14.70;11.40;;;;;;;;;;8365683;28;20128;-88
2022/08/22 06:12:03;;;;;;;15.65;10.70;;;;;;;;;;8365448;28;20049;-89
2022/08/22 06:16:19;;;;;;;12.82;9.98;;;;;;;;;;8367351;28;20052;-88
2022/08/22 06:20:48;;;;;;;12.97;9.07;;;;;;;;;;8364724;28;20189;-87
2022/08/22 06:25:07;;;;;;;12.18;8.27;;;;;;;;;;8356295;28;20041;-87
2022/08/22 06:29:32;;;;;;;9.38;7.13;;;;;;;;;;8362382;28;20061;-88
2022/08/22 06:33:46;;;;;;;8.77;7.03;;;;;;;;;;8363795;28;20527;-88
2022/08/22 06:38:11;;;;;;;8.80;6.70;;;;;;;;;;8364191;28;20044;-87
2022/08/22 06:42:27;;;;;;;10.13;6.30;;;;;;;;;;8358770;28;20485;-87
2022/08/22 06:47:03;;;;;;;8.02;6.20;;;;;;;;;;8354914;28;20037;-87
2022/08/22 07:06:17;;;;;;;8.27;5.07;;;;;;;;;;8315358;28;20037;-88
2022/08/22 07:10:30;;;;;;;9.13;5.57;;;;;;;;;;8318279;28;20352;-88
2022/08/22 07:14:48;;;;;;;8.23;5.45;;;;;;;;;;8326850;28;20076;-88
2022/08/22 07:19:02;;;;;;;5.85;4.63;;;;;;;;;;8312816;28;20046;-88
2022/08/22 07:23:27;;;;;;;5.43;3.90;;;;;;;;;;8320681;28;20557;-89
2022/08/22 07:27:59;;;;;;;5.57;4.28;;;;;;;;;;8323962;28;20050;-88
2022/08/22 07:32:28;;;;;;;5.63;4.13;;;;;;;;;;8317716;28;20050;-86
2022/08/22 07:36:58;;;;;;;7.63;4.25;;;;;;;;;;8337912;28;20045;-86
2022/08/22 07:45:38;;;;;;;;;;;;;;;;;;8331125;28;20482;-86
2022/08/22 07:50:12;;;;;;;7.03;3.90;;;;;;;;;;8330065;28;19925;-87
2022/08/22 07:54:35;;;;;;;6.68;3.63;;;;;;;;;;8324338;28;20076;-88
2022/08/22 07:58:52;;;;;;;4.68;3.65;;;;;;;;;;8320745;28;20065;-87
2022/08/22 08:03:11;;;;;;;5.65;3.58;;;;;;;;;;8324601;28;20551;-87
2022/08/22 08:07:26;;;;;;;4.88;3.53;;;;;;;;;;8326117;28;20051;-86
2022/08/22 08:11:52;;;;;;;5.15;3.40;;;;;;;;;;8317030;28;20088;-85
2022/08/22 08:16:01;;;;;;;6.80;4.10;;;;;;;;;;8317758;28;20042;-87
2022/08/22 08:20:28;;;;;;;6.80;4.07;;;;;;;;;;8327600;28;20129;-87
2022/08/22 08:24:40;;;;;;;5.75;3.80;;;;;;;;;;8333392;28;20099;-86
2022/08/22 08:28:55;;;;;;;5.20;4.10;;;;;;;;;;8330914;28;20737;-86
2022/08/22 08:33:07;;;;;;;9.80;4.10;;;;;;;;;;8331077;28;20038;-87
2022/08/22 08:37:32;;;;;;;6.72;3.97;;;;;;;;;;8325172;28;20524;-87
2022/08/22 08:42:08;;;;;;;5.65;3.97;;;;;;;;;;8329921;28;20413;-87
2022/08/22 08:46:54;;;;;;;4.75;3.65;;;;;;;;;;8324882;28;20048;-87
2022/08/22 08:51:46;;;;;;;8.13;4.10;;;;;;;;;;8324805;28;20045;-88
2022/08/22 08:56:02;;;;;;;7.22;4.20;;;;;;;;;;8327285;28;20517;-87
2022/08/22 09:00:19;;;;;;;6.43;4.43;;;;;;;;;;8330211;28;20091;-86
2022/08/22 09:04:49;;;;;;;6.82;4.53;;;;;;;;;;8321957;28;20516;-86
2022/08/22 09:09:08;;;;;;;8.20;4.55;;;;;;;;;;8329969;28;20095;-91
2022/08/22 09:13:32;;;;;;;5.30;4.10;;;;;;;;;;8331727;28;20512;-89
2022/08/22 09:18:05;;;;;;;6.40;4.60;;;;;;;;;;8334591;28;20107;-93
2022/08/22 09:22:55;;;;;;;6.95;4.72;;;;;;;;;;8328870;28;20096;-91
2022/08/22 09:27:04;;;;;;;6.15;4.22;;;;;;;;;;8280766;28;20061;-88
2022/08/22 09:31:27;;;;;;;6.60;4.40;;;;;;;;;;8328971;28;20069;-88
2022/08/22 09:35:40;;;;;;;6.35;4.57;;;;;;;;;;8331667;28;20068;-91
2022/08/22 09:39:53;;;;;;;5.88;4.70;;;;;;;;;;8328905;28;20408;-88
2022/08/22 09:44:09;;;;;;;6.57;4.90;;;;;;;;;;8330344;28;20125;-87
2022/08/22 09:48:35;;;;;;;6.65;5.32;;;;;;;;;;8328131;28;20092;-87
2022/08/22 09:52:58;;;;;;;7.18;5.28;;;;;;;;;;8331403;28;20052;-88
2022/08/22 09:57:19;;;;;;;9.60;5.53;;;;;;;;;;8331918;28;20053;-86
2022/08/22 10:01:27;;;;;;;9.15;6.68;;;;;;;;;;8331711;28;20520;-88
2022/08/22 10:05:35;;;;;;;10.90;6.50;;;;;;;;;;8332150;28;20654;-87
2022/08/22 10:09:49;;;;;;;8.02;5.70;;;;;;;;;;8332219;28;20124;-86
2022/08/22 10:13:58;;;;;;;10.85;6.28;;;;;;;;;;8331925;28;20049;-86
2022/08/22 10:18:14;;;;;;;8.75;6.05;;;;;;;;;;8331924;28;20049;-88
2022/08/22 10:22:37;;;;;;;7.95;5.85;;;;;;;;;;8331704;28;20045;-87
2022/08/22 10:26:46;;;;;;;7.30;5.93;;;;;;;;;;8325493;28;20037;-87
2022/08/22 10:31:05;;;;;;;7.30;5.80;;;;;;;;;;8319832;28;20421;-86
2022/08/22 10:35:19;;;;;;;7.15;5.55;;;;;;;;;;8326061;28;20049;-87
2022/08/22 10:39:27;;;;;;;8.25;5.72;;;;;;;;;;8326960;28;20519;-87
2022/08/22 10:43:39;;;;;;;8.75;5.63;;;;;;;;;;8326848;28;20065;-86
2022/08/22 10:48:15;;;;;;;10.75;5.60;;;;;;;;;;8325167;28;20152;-86
2022/08/22 10:52:24;;;;;;;8.73;5.88;;;;;;;;;;8326274;28;20107;-86
2022/08/22 10:56:33;;;;;;;8.68;5.70;;;;;;;;;;8320654;28;20057;-86
2022/08/22 11:00:47;;;;;;;7.38;5.85;;;;;;;;;;8330602;28;20790;-87
2022/08/22 11:05:27;;;;;;;8.10;5.95;;;;;;;;;;8327570;28;20049;-88
2022/08/22 11:09:37;;;;;;;9.88;6.90;;;;;;;;;;8306428;28;20057;-87
2022/08/22 11:13:47;;;;;;;9.93;6.88;;;;;;;;;;8326753;28;20106;-87
2022/08/22 11:18:16;;;;;;;10.80;7.47;;;;;;;;;;8340716;28;20163;-86
2022/08/22 11:22:32;;;;;;;11.85;6.47;;;;;;;;;;8327396;28;20138;-87
2022/08/22 11:26:42;;;;;;;11.60;6.78;;;;;;;;;;8334953;28;20086;-86
2022/08/22 11:30:53;;;;;;;10.32;6.53;;;;;;;;;;8325745;28;20055;-86
2022/08/22 11:35:00;;;;;;;8.90;6.55;;;;;;;;;;8325258;28;20077;-86
2022/08/22 11:39:16;;;;;;;10.27;6.85;;;;;;;;;;8329324;28;20045;-86
2022/08/22 11:43:46;;;;;;;12.23;6.78;;;;;;;;;;8328292;28;20145;-86
2022/08/22 11:47:59;;;;;;;11.95;6.47;;;;;;;;;;8328406;28;20057;-86
2022/08/22 11:52:27;;;;;;;12.05;6.60;;;;;;;;;;8325638;28;20124;-86
2022/08/22 11:56:36;;;;;;;9.40;5.78;;;;;;;;;;8324587;28;20341;-86
2022/08/22 12:00:49;;;;;;;13.73;7.13;;;;;;;;;;8324980;28;20053;-87
2022/08/22 12:04:56;;;;;;;11.05;5.95;;;;;;;;;;8325299;28;20099;-86
2022/08/22 12:09:46;;;;;;;11.70;6.72;;;;;;;;;;8323987;28;20140;-87
2022/08/22 12:13:54;;;;;;;9.18;5.90;;;;;;;;;;8282339;28;20114;-87
2022/08/22 12:18:21;;;;;;;9.20;6.35;;;;;;;;;;8324527;28;20069;-86
2022/08/22 12:22:50;;;;;;;9.90;5.88;;;;;;;;;;8323843;28;20041;-85
2022/08/22 12:27:05;;;;;;;10.70;5.70;;;;;;;;;;8334507;28;20045;-86
2022/08/22 12:31:20;;;;;;;11.82;5.57;;;;;;;;;;8351571;28;20045;-88
2022/08/22 12:35:38;;;;;;;7.75;5.38;;;;;;;;;;8344088;28;20144;-87
2022/08/22 12:40:16;;;;;;;10.82;5.93;;;;;;;;;;8349202;28;20065;-87
2022/08/22 12:44:29;;;;;;;11.77;5.60;;;;;;;;;;8342606;28;20136;-87
2022/08/22 12:48:52;;;;;;;9.57;5.70;;;;;;;;;;8327717;28;20067;-87
2022/08/22 12:53:25;;;;;;;9.68;5.40;;;;;;;;;;8318027;28;20053;-86
2022/08/22 12:57:41;;;;;;;9.43;5.32;;;;;;;;;;8323661;28;20057;-87
2022/08/22 13:01:45;;;;;;;9.23;5.72;;;;;;;;;;8329947;28;20057;-86
2022/08/22 13:05:50;;;;;;;9.30;5.30;;;;;;;;;;8329040;28;20072;-86
2022/08/22 13:09:56;;;;;;;7.75;5.45;;;;;;;;;;8329338;28;20068;-87
2022/08/22 13:14:01;;;;;;;11.98;5.22;;;;;;;;;;8329293;28;20398;-86
2022/08/22 13:18:08;;;;;;;13.35;5.93;;;;;;;;;;8331432;28;20049;-86
2022/08/22 13:22:19;;;;;;;10.88;5.15;;;;;;;;;;8330237;28;20055;-87
2022/08/22 13:26:25;;;;;;;11.10;5.45;;;;;;;;;;8329125;28;20049;-87
2022/08/22 13:30:32;;;;;;;10.52;5.35;;;;;;;;;;8329257;28;20095;-86
2022/08/22 13:34:46;;;;;;;10.43;4.85;;;;;;;;;;8327621;28;20119;-86
2022/08/22 13:38:58;;;;;;;9.82;4.93;;;;;;;;;;8326795;28;20061;-94
2022/08/22 13:43:30;;;;;;;11.38;5.80;;;;;;;;;;8323612;28;20042;-87
2022/08/22 13:47:55;;;;;;;14.43;6.05;;;;;;;;;;8327561;28;20490;-87
2022/08/22 13:52:17;;;;;;;11.10;5.65;;;;;;;;;;8328904;28;20556;-87
2022/08/22 13:56:36;;;;;;;10.60;5.22;;;;;;;;;;8325112;28;20053;-88
2022/08/22 14:01:19;;;;;;;12.02;6.00;;;;;;;;;;8328115;28;20056;-86
2022/08/22 14:05:31;;;;;;;13.68;5.75;;;;;;;;;;8324592;28;20056;-90
2022/08/22 14:09:44;;;;;;;9.88;5.65;;;;;;;;;;8327258;28;20045;-87
2022/08/22 14:14:03;;;;;;;10.15;6.03;;;;;;;;;;8327981;28;20045;-87
2022/08/22 14:18:16;;;;;;;12.73;5.60;;;;;;;;;;8327520;28;20636;-87
2022/08/22 14:22:28;;;;;;;8.25;5.57;;;;;;;;;;8321531;28;20045;-87
2022/08/22 14:26:43;;;;;;;34.55;24.52;;;;;;;;;;8325509;28;20091;-92
2022/08/22 14:31:09;;;;;;;16.20;9.00;;;;;;;;;;8326911;28;20708;-89
2022/08/22 14:35:23;;;;;;;36.17;27.02;;;;;;;;;;8325432;28;20052;-87
2022/08/22 14:39:34;;;;;;;22.42;15.80;;;;;;;;;;8326918;28;20049;-87
2022/08/22 14:43:50;;;;;;;14.30;6.90;;;;;;;;;;8326432;28;20251;-87
2022/08/22 14:48:08;;;;;;;23.88;11.27;;;;;;;;;;8326833;28;20053;-87
2022/08/22 14:52:34;;;;;;;16.00;9.00;;;;;;;;;;8325960;28;20050;-87
2022/08/22 14:56:44;;;;;;;11.10;6.85;;;;;;;;;;8325460;28;20096;-87
2022/08/22 15:00:57;;;;;;;11.57;6.63;;;;;;;;;;8326034;28;20119;-87
2022/08/22 15:05:19;;;;;;;14.10;8.30;;;;;;;;;;8325567;28;20187;-87
2022/08/22 15:09:33;;;;;;;133.43;79.93;;;;;;;;;;8322191;28;20068;-87
2022/08/22 15:13:40;;;;;;;45.85;32.60;;;;;;;;;;8325782;28;20045;-86
2022/08/22 15:17:46;;;;;;;25.95;16.50;;;;;;;;;;8325444;28;20049;-88
2022/08/22 15:21:52;;;;;;;40.47;23.88;;;;;;;;;;8325160;28;20049;-87
2022/08/22 15:26:05;;;;;;;12.57;6.63;;;;;;;;;;8325130;28;20053;-88
2022/08/22 15:30:14;;;;;;;16.25;7.70;;;;;;;;;;8325119;28;20124;-93
2022/08/22 15:34:25;;;;;;;13.00;8.85;;;;;;;;;;8327717;28;20041;-88
2022/08/22 15:38:34;;;;;;;12.98;7.50;;;;;;;;;;8326841;28;20053;-89
2022/08/22 15:42:40;;;;;;;15.05;7.18;;;;;;;;;;8323433;28;20046;-88
2022/08/22 15:46:57;;;;;;;12.98;7.70;;;;;;;;;;8325164;28;20119;-87
2022/08/22 15:51:09;;;;;;;12.43;8.02;;;;;;;;;;8324323;28;20045;-89
2022/08/22 15:55:29;;;;;;;12.60;7.20;;;;;;;;;;8319095;28;20077;-87
2022/08/22 15:59:51;;;;;;;15.38;7.55;;;;;;;;;;8298286;28;20048;-88
2022/08/22 16:04:15;;;;;;;13.57;10.10;;;;;;;;;;8305012;28;20133;-90
2022/08/22 16:08:29;;;;;;;13.20;7.60;;;;;;;;;;8295524;28;20123;-89
2022/08/22 16:12:46;;;;;;;12.65;7.72;;;;;;;;;;8286317;28;20041;-88
2022/08/22 16:17:02;;;;;;;15.38;8.85;;;;;;;;;;8291750;28;20061;-88
2022/08/22 16:21:10;;;;;;;12.95;9.48;;;;;;;;;;8299558;28;20049;-92
2022/08/22 16:25:21;;;;;;;14.25;8.50;;;;;;;;;;8274928;28;20053;-88
2022/08/22 16:29:39;;;;;;;13.32;9.20;;;;;;;;;;8291111;28;20100;-88
2022/08/22 16:33:50;;;;;;;16.35;9.57;;;;;;;;;;8306339;28;20057;-88
2022/08/22 16:38:00;;;;;;;14.68;9.68;;;;;;;;;;8300273;28;20053;-88
2022/08/22 16:42:35;;;;;;;16.98;10.02;;;;;;;;;;8297190;28;20638;-88
2022/08/22 16:46:46;;;;;;;13.02;9.68;;;;;;;;;;8303416;28;20754;-88
2022/08/22 16:51:12;;;;;;;16.50;11.75;;;;;;;;;;8296067;28;20041;-88
2022/08/22 16:55:57;;;;;;;22.52;13.50;;;;;;;;;;8298095;28;20045;-87
2022/08/22 17:00:10;;;;;;;19.30;10.70;;;;;;;;;;8328552;28;20486;-88
2022/08/22 17:04:24;;;;;;;22.85;13.93;;;;;;;;;;8328744;28;20603;-88
2022/08/22 17:08:37;;;;;;;22.65;14.88;;;;;;;;;;8325272;28;20061;-89
2022/08/22 17:12:53;;;;;;;17.92;10.93;;;;;;;;;;8328898;28;20078;-87
2022/08/22 17:17:14;;;;;;;14.73;10.68;;;;;;;;;;8329714;28;20060;-87
2022/08/22 17:21:24;;;;;;;18.30;11.35;;;;;;;;;;8329430;28;20485;-87
2022/08/22 17:25:34;;;;;;;16.05;12.50;;;;;;;;;;8329019;28;20103;-89
2022/08/22 17:29:59;;;;;;;16.43;11.97;;;;;;;;;;8328949;28;20560;-88
2022/08/22 17:34:22;;;;;;;19.50;11.95;;;;;;;;;;8328872;28;20099;-87
2022/08/22 17:38:41;;;;;;;17.35;13.05;;;;;;;;;;8327441;28;20564;-89
2022/08/22 17:42:59;;;;;;;20.75;12.10;;;;;;;;;;8322778;28;20049;-87
2022/08/22 17:47:08;;;;;;;21.08;13.00;;;;;;;;;;8323724;28;20041;-88
2022/08/22 17:51:22;;;;;;;19.42;13.23;;;;;;;;;;8328285;28;20481;-88
2022/08/22 17:55:31;;;;;;;21.52;13.32;;;;;;;;;;8310515;28;20049;-88
2022/08/22 17:59:44;;;;;;;20.52;13.10;;;;;;;;;;8327978;28;20053;-88
2022/08/22 18:04:03;;;;;;;19.05;11.18;;;;;;;;;;8327756;28;20069;-87
2022/08/22 18:08:12;;;;;;;17.02;12.20;;;;;;;;;;8327835;28;20589;-88
2022/08/22 18:12:23;;;;;;;13.27;10.02;;;;;;;;;;8327430;28;20041;-88
2022/08/22 18:16:29;;;;;;;15.55;11.48;;;;;;;;;;8321392;28;20486;-88
2022/08/22 18:20:37;;;;;;;15.55;11.23;;;;;;;;;;8321690;28;20049;-88
2022/08/22 18:24:46;;;;;;;23.05;11.98;;;;;;;;;;8325827;28;20088;-88
2022/08/22 18:28:56;;;;;;;19.50;12.35;;;;;;;;;;8327271;28;20421;-87
2022/08/22 18:33:03;;;;;;;19.02;12.52;;;;;;;;;;8327152;28;20095;-87
2022/08/22 18:37:14;;;;;;;19.50;11.70;;;;;;;;;;8326386;28;20041;-87
2022/08/22 18:41:29;;;;;;;17.13;11.60;;;;;;;;;;8326809;28;20056;-86
2022/08/22 18:45:56;;;;;;;18.10;12.30;;;;;;;;;;8326408;28;20053;-88
2022/08/22 18:50:01;;;;;;;16.10;11.02;;;;;;;;;;8326696;28;20073;-88
2022/08/22 18:54:29;;;;;;;13.00;10.88;;;;;;;;;;8325489;28;20057;-87
2022/08/22 18:58:46;;;;;;;18.75;11.55;;;;;;;;;;8321011;28;20148;-87
2022/08/22 19:03:11;;;;;;;16.15;10.57;;;;;;;;;;8326055;28;20052;-89
2022/08/22 19:07:29;;;;;;;14.40;9.90;;;;;;;;;;8326343;28;20072;-89
2022/08/22 19:11:51;;;;;;;15.73;9.18;;;;;;;;;;8320912;28;20466;-87
2022/08/22 19:16:14;;;;;;;14.90;10.90;;;;;;;;;;8326043;28;20064;-87
2022/08/22 19:25:25;;;;;;;14.07;9.70;;;;;;;;;;8325111;28;20051;-87
2022/08/22 19:29:54;;;;;;;15.80;10.32;;;;;;;;;;8229809;28;20762;-88
2022/08/22 19:34:18;;;;;;;16.80;9.63;;;;;;;;;;8232275;28;20149;-89
2022/08/22 19:38:58;;;;;;;13.88;9.32;;;;;;;;;;8224163;28;20059;-88
2022/08/22 19:43:18;;;;;;;15.10;9.10;;;;;;;;;;8235704;28;20578;-87
2022/08/22 19:47:30;;;;;;;16.23;9.13;;;;;;;;;;8234282;28;20066;-89
2022/08/22 19:51:35;;;;;;;19.60;9.38;;;;;;;;;;8256023;28;20137;-87
2022/08/22 19:55:58;;;;;;;13.00;8.95;;;;;;;;;;8258082;28;20482;-88
2022/08/22 20:00:06;;;;;;;12.57;9.00;;;;;;;;;;8299443;28;20069;-90
2022/08/22 20:04:27;;;;;;;18.73;9.35;;;;;;;;;;8324599;28;20100;-87
2022/08/22 20:08:52;;;;;;;14.13;8.73;;;;;;;;;;8325189;28;20096;-88
2022/08/22 20:13:10;;;;;;;15.07;8.75;;;;;;;;;;8322917;28;20044;-86
2022/08/22 20:17:35;;;;;;;12.50;8.35;;;;;;;;;;8324408;28;20057;-87
2022/08/22 20:21:43;;;;;;;16.98;8.98;;;;;;;;;;8324415;28;20047;-90
2022/08/22 20:25:49;;;;;;;12.57;9.35;;;;;;;;;;8324639;28;20069;-87
2022/08/22 20:30:12;;;;;;;15.48;8.57;;;;;;;;;;8324534;28;20125;-88
2022/08/22 20:34:21;;;;;;;16.20;9.43;;;;;;;;;;8324282;28;20240;-87
2022/08/22 20:38:31;;;;;;;14.45;8.65;;;;;;;;;;8324744;28;20548;-88
2022/08/22 20:42:36;;;;;;;15.60;8.55;;;;;;;;;;8319118;28;20099;-86
2022/08/22 20:46:52;;;;;;;15.00;8.95;;;;;;;;;;8324176;28;20045;-87
2022/08/22 20:51:03;;;;;;;14.77;8.85;;;;;;;;;;8324019;28;20048;-86
2022/08/22 20:55:12;;;;;;;13.85;8.80;;;;;;;;;;8324266;28;20053;-87
2022/08/22 20:59:26;;;;;;;16.45;8.70;;;;;;;;;;8354385;28;20423;-88
2022/08/22 21:03:38;;;;;;;14.20;8.52;;;;;;;;;;8339827;28;20053;-87
2022/08/22 21:07:43;;;;;;;13.85;8.00;;;;;;;;;;8356607;28;20041;-87
2022/08/22 21:11:50;;;;;;;15.02;8.63;;;;;;;;;;8356471;28;20728;-87
2022/08/22 21:15:55;;;;;;;12.90;9.00;;;;;;;;;;8356579;28;20144;-87
2022/08/22 21:20:16;;;;;;;12.93;8.63;;;;;;;;;;8358993;28;20060;-87
2022/08/22 21:24:18;;;;;;;13.30;8.70;;;;;;;;;;8362593;28;20055;-87
2022/08/22 21:28:29;;;;;;;13.73;8.98;;;;;;;;;;8359469;28;20610;-87
2022/08/22 21:32:34;;;;;;;16.10;9.18;;;;;;;;;;8362202;28;20471;-87
2022/08/22 21:36:38;;;;;;;13.45;8.35;;;;;;;;;;8362582;28;20049;-87
2022/08/22 21:40:41;;;;;;;18.33;8.90;;;;;;;;;;8361622;28;20041;-86
2022/08/22 21:44:53;;;;;;;15.88;8.73;;;;;;;;;;8361552;28;20045;-87
2022/08/22 21:49:03;;;;;;;19.10;9.05;;;;;;;;;;8361936;28;20068;-86
2022/08/22 21:53:10;;;;;;;13.90;8.90;;;;;;;;;;8361621;28;20074;-87
2022/08/22 21:57:34;;;;;;;12.43;8.88;;;;;;;;;;8361295;28;20059;-87
2022/08/22 22:01:37;;;;;;;14.95;8.80;;;;;;;;;;8358818;28;20051;-88
2022/08/22 22:05:40;;;;;;;12.63;8.65;;;;;;;;;;8361148;28;20051;-86
2022/08/22 22:09:44;;;;;;;15.18;8.68;;;;;;;;;;8360645;28;20053;-86
2022/08/22 22:13:47;;;;;;;12.00;8.70;;;;;;;;;;8360843;28;20040;-86
2022/08/22 22:17:53;;;;;;;14.32;9.20;;;;;;;;;;8360532;28;20045;-86
2022/08/22 22:21:56;;;;;;;17.25;10.10;;;;;;;;;;8360898;28;20056;-86
2022/08/22 22:26:02;;;;;;;12.82;8.70;;;;;;;;;;8360370;28;20055;-87
2022/08/22 22:30:06;;;;;;;16.13;9.57;;;;;;;;;;8359815;28;20044;-88
2022/08/22 22:34:09;;;;;;;14.77;9.20;;;;;;;;;;8359738;28;20051;-86
2022/08/22 22:38:12;;;;;;;18.27;8.95;;;;;;;;;;8360268;28;20048;-86
2022/08/22 22:42:16;;;;;;;13.27;8.65;;;;;;;;;;8359959;28;20123;-87
2022/08/22 22:46:19;;;;;;;15.43;9.45;;;;;;;;;;8359976;28;20059;-87
2022/08/22 22:50:23;;;;;;;10.43;8.10;;;;;;;;;;8359822;28;20051;-87
2022/08/22 22:54:25;;;;;;;14.48;9.32;;;;;;;;;;8359540;28;20041;-86
2022/08/22 22:58:29;;;;;;;12.50;9.55;;;;;;;;;;8359003;28;20056;-87
2022/08/22 23:02:32;;;;;;;15.45;9.65;;;;;;;;;;8359191;28;20075;-86
2022/08/22 23:06:34;;;;;;;14.00;9.02;;;;;;;;;;8359127;28;20102;-86
2022/08/22 23:10:37;;;;;;;16.00;9.45;;;;;;;;;;8359254;28;20390;-86
2022/08/22 23:14:41;;;;;;;15.55;10.10;;;;;;;;;;8358509;28;20108;-86
2022/08/22 23:18:44;;;;;;;16.17;10.30;;;;;;;;;;8358643;28;20263;-87
2022/08/22 23:22:46;;;;;;;15.23;10.77;;;;;;;;;;8358284;28;20118;-88
2022/08/22 23:26:49;;;;;;;17.70;11.07;;;;;;;;;;8358510;28;20076;-87
2022/08/22 23:30:53;;;;;;;17.98;11.35;;;;;;;;;;8358324;28;20045;-87
2022/08/22 23:34:55;;;;;;;26.63;12.02;;;;;;;;;;8358049;28;20122;-88
2022/08/22 23:38:58;;;;;;;22.88;12.13;;;;;;;;;;8359580;28;20054;-88
2022/08/22 23:43:00;;;;;;;23.83;13.00;;;;;;;;;;8355082;28;20045;-87
2022/08/22 23:47:06;;;;;;;19.05;12.65;;;;;;;;;;8358180;28;20052;-88
2022/08/22 23:51:10;;;;;;;22.77;13.35;;;;;;;;;;8358166;28;20052;-90
2022/08/22 23:55:13;;;;;;;19.92;12.80;;;;;;;;;;8357838;28;20045;-88
2022/08/22 23:59:17;;;;;;;23.50;12.98;;;;;;;;;;8357169;28;20080;-87
